Time;durP1;ratioP1;P1;durP2;ratioP2;P2;SDS_P1;SDS_P2;PMS_P1;PMS_P2;Temp;Humidity;BMP_temperature;BMP_pressure;BME280_temperature;BME280_humidity;BME280_pressure;Samples;Min_cycle;Max_cycle;Signal;HPM_P1;HPM_P2
2023/05/02 00:00:05;;;;;;;;;;;;;;;;;;4968139;28;20389;-71
2023/05/02 00:02:30;;;;;;;;;;;;;;;;;;4986670;28;20005;-71
2023/05/02 00:04:56;;;;;;;;;;;;;;;;;;4987169;28;20530;-72
2023/05/02 00:07:21;;;;;;;;;;;;;;;;;;4969692;28;19921;-72
2023/05/02 00:09:47;;;;;;;;;;;;;;;;;;4972287;28;20015;-70
2023/05/02 00:12:13;;;;;;;;;;;;;;;;;;4963403;28;20300;-70
2023/05/02 00:14:38;;;;;;;;;;;;;;;;;;4984124;28;19932;-70
2023/05/02 00:17:03;;;;;;;;;;;;;;;;;;4981864;28;19918;-71
2023/05/02 00:19:29;;;;;;;;;;;;;;;;;;4951675;28;19932;-71
2023/05/02 00:21:54;;;;;;;;;;;;;;;;;;4983248;28;19922;-69
2023/05/02 00:24:19;;;;;;;;;;;;;;;;;;4967339;28;20495;-71
2023/05/02 00:26:45;;;;;;;;;;;;;;;;;;4984735;28;19960;-70
2023/05/02 00:29:11;;;;;;;;;;;;;;;;;;4977374;28;20277;-70
2023/05/02 00:31:36;;;;;;;;;;;;;;;;;;4986300;28;19932;-70
2023/05/02 00:34:01;;;;;;;;;;;;;;;;;;4947922;28;20254;-71
2023/05/02 00:36:27;;;;;;;;;;;;;;;;;;4984125;28;20060;-69
2023/05/02 00:38:52;;;;;;;;;;;;;;;;;;4949440;28;19917;-69
2023/05/02 00:41:17;;;;;;;;;;;;;;;;;;4986625;28;20017;-69
2023/05/02 00:43:43;;;;;;;;;;;;;;;;;;4979516;28;19930;-68
2023/05/02 00:46:10;;;;;;;;;;;;;;;;;;4979496;28;21017;-69
2023/05/02 00:48:36;;;;;;;;;;;;;;;;;;4976423;28;20024;-71
2023/05/02 00:51:01;;;;;;;;;;;;;;;;;;4983683;28;20284;-69
2023/05/02 00:53:29;;;;;;;;;;;;;;;;;;4968794;28;20010;-71
2023/05/02 00:55:57;;;;;;;;;;;;;;;;;;4965716;28;19918;-69
2023/05/02 00:58:22;;;;;;;;;;;;;;;;;;4984724;28;19929;-69
2023/05/02 01:00:48;;;;;;;;;;;;;;;;;;4985131;28;19940;-69
2023/05/02 01:03:15;;;;;;;;;;;;;;;;;;4982085;28;20549;-69
2023/05/02 01:05:41;;;;;;;;;;;;;;;;;;4981768;28;19944;-70
2023/05/02 01:08:07;;;;;;;;;;;;;;;;;;4945520;28;20456;-71
2023/05/02 01:10:33;;;;;;;;;;;;;;;;;;4965986;28;19922;-69
2023/05/02 01:12:59;;;;;;;;;;;;;;;;;;4966091;28;20773;-69
2023/05/02 01:15:24;;;;;;;;;;;;;;;;;;4982536;28;20423;-69
2023/05/02 01:17:49;;;;;;;;;;;;;;;;;;4965944;28;19922;-68
2023/05/02 01:20:15;;;;;;;;;;;;;;;;;;4968935;28;20452;-70
2023/05/02 01:22:40;;;;;;;;;;;;;;;;;;4986427;28;19925;-69
2023/05/02 01:25:08;;;;;;;;;;;;;;;;;;4968175;28;19924;-69
2023/05/02 01:27:34;;;;;;;;;;;;;;;;;;4967248;28;19918;-69
2023/05/02 01:30:00;;;;;;;;;;;;;;;;;;4966449;28;19925;-71
2023/05/02 01:32:25;;;;;;;;;;;;;;;;;;4947490;28;20356;-70
2023/05/02 01:34:50;;;;;;;;;;;;;;;;;;4950562;28;20000;-68
2023/05/02 01:37:16;;;;;;;;;;;;;;;;;;4943921;28;19999;-69
2023/05/02 01:39:41;;;;;;;;;;;;;;;;;;4981339;28;19990;-69
2023/05/02 01:42:06;;;;;;;;;;;;;;;;;;4951904;28;19922;-70
2023/05/02 01:44:32;;;;;;;;;;;;;;;;;;4984115;28;20404;-70
2023/05/02 01:46:58;;;;;;;;;;;;;;;;;;4964804;28;19921;-70
2023/05/02 01:49:23;;;;;;;;;;;;;;;;;;4984520;28;20409;-69
2023/05/02 01:51:52;;;;;;;;;;;;;;;;;;4951556;28;19932;-69
2023/05/02 01:54:17;;;;;;;;;;;;;;;;;;4945100;28;19917;-66
2023/05/02 01:56:43;;;;;;;;;;;;;;;;;;4927879;28;20325;-69
2023/05/02 01:59:08;;;;;;;;;;;;;;;;;;4981649;28;19967;-68
2023/05/02 02:01:34;;;;;;;;;;;;;;;;;;4982571;28;20305;-69
2023/05/02 02:03:59;;;;;;;;;;;;;;;;;;4972853;28;20214;-68
2023/05/02 02:06:24;;;;;;;;;;;;;;;;;;4972900;28;20624;-68
2023/05/02 02:08:50;;;;;;;;;;;;;;;;;;4974654;28;19917;-70
2023/05/02 02:11:15;;;;;;;;;;;;;;;;;;4959080;28;20079;-68
2023/05/02 02:13:41;;;;;;;;;;;;;;;;;;4992498;28;19928;-72
2023/05/02 02:16:07;;;;;;;;;;;;;;;;;;4990801;28;19927;-73
2023/05/02 02:18:33;;;;;;;;;;;;;;;;;;4976226;28;19956;-68
2023/05/02 02:20:59;;;;;;;;;;;;;;;;;;4987250;28;20012;-69
2023/05/02 02:23:25;;;;;;;;;;;;;;;;;;4976636;28;19925;-68
2023/05/02 02:25:51;;;;;;;;;;;;;;;;;;4973513;28;20117;-72
2023/05/02 02:28:17;;;;;;;;;;;;;;;;;;4971321;28;19922;-70
2023/05/02 02:30:42;;;;;;;;;;;;;;;;;;4973514;28;19975;-69
2023/05/02 02:33:08;;;;;;;;;;;;;;;;;;4971901;28;20407;-70
2023/05/02 02:35:33;;;;;;;;;;;;;;;;;;4991887;28;19933;-65
2023/05/02 02:37:59;;;;;;;;;;;;;;;;;;4990337;28;20542;-66
2023/05/02 02:40:27;;;;;;;;;;;;;;;;;;4972978;28;19952;-66
2023/05/02 02:42:54;;;;;;;;;;;;;;;;;;4974142;28;20372;-68
2023/05/02 02:45:20;;;;;;;;;;;;;;;;;;4974476;28;20064;-68
2023/05/02 02:47:45;;;;;;;;;;;;;;;;;;4973055;28;20356;-66
2023/05/02 02:50:11;;;;;;;;;;;;;;;;;;4954707;28;20282;-70
2023/05/02 02:52:36;;;;;;;;;;;;;;;;;;4955256;28;19936;-69
2023/05/02 02:55:02;;;;;;;;;;;;;;;;;;4990342;28;19925;-68
2023/05/02 02:57:27;;;;;;;;;;;;;;;;;;4956087;28;19928;-70
2023/05/02 02:59:53;;;;;;;;;;;;;;;;;;4971778;28;20387;-67
2023/05/02 03:02:18;;;;;;;;;;;;;;;;;;4971420;28;20023;-68
2023/05/02 03:04:44;;;;;;;;;;;;;;;;;;4991546;28;19928;-70
2023/05/02 03:07:10;;;;;;;;;;;;;;;;;;4972619;28;19928;-66
2023/05/02 03:09:35;;;;;;;;;;;;;;;;;;4990760;28;20287;-70
2023/05/02 03:12:01;;;;;;;;;;;;;;;;;;4975887;28;20286;-68
2023/05/02 03:14:26;;;;;;;;;;;;;;;;;;4989001;28;20004;-69
2023/05/02 03:16:52;;;;;;;;;;;;;;;;;;4973278;28;19922;-70
2023/05/02 03:19:17;;;;;;;;;;;;;;;;;;4971469;28;19917;-68
2023/05/02 03:21:45;;;;;;;;;;;;;;;;;;4973321;28;19929;-68
2023/05/02 03:24:11;;;;;;;;;;;;;;;;;;4978001;28;19921;-68
2023/05/02 03:26:36;;;;;;;;;;;;;;;;;;4956155;28;20008;-67
2023/05/02 03:29:02;;;;;;;;;;;;;;;;;;4986839;28;19940;-67
2023/05/02 03:31:27;;;;;;;;;;;;;;;;;;4989886;28;20584;-70
2023/05/02 03:33:53;;;;;;;;;;;;;;;;;;4991766;28;19921;-67
2023/05/02 03:39:34;;;;;;;;;;;;;;;;;;4986237;28;19964;-68
2023/05/02 03:42:02;;;;;;;;;;;;;;;;;;4957457;28;19917;-68
2023/05/02 03:44:28;;;;;;;;;;;;;;;;;;4970780;28;19921;-69
2023/05/02 03:46:55;;;;;;;;;;;;;;;;;;4973650;28;19985;-68
2023/05/02 03:49:21;;;;;;;;;;;;;;;;;;4970402;28;19964;-70
2023/05/02 03:51:46;;;;;;;;;;;;;;;;;;4972231;28;20730;-69
2023/05/02 03:54:11;;;;;;;;;;;;;;;;;;4990547;28;20361;-68
2023/05/02 03:56:56;;;;;;;;;;;;;;;;;;4990378;28;19917;-69
2023/05/02 03:59:24;;;;;;;;;;;;;;;;;;4991094;28;19917;-68
2023/05/02 04:01:50;;;;;;;;;;;;;;;;;;4973456;28;20040;-65
2023/05/02 04:04:15;;;;;;;;;;;;;;;;;;4972822;28;20064;-67
2023/05/02 04:06:41;;;;;;;;;;;;;;;;;;4973732;28;20542;-66
2023/05/02 04:09:06;;;;;;;;;;;;;;;;;;4989680;28;20225;-69
2023/05/02 04:11:34;;;;;;;;;;;;;;;;;;4989098;28;19922;-67
2023/05/02 04:14:00;;;;;;;;;;;;;;;;;;4968688;28;20039;-69
2023/05/02 04:16:25;;;;;;;;;;;;;;;;;;4948438;28;19978;-69
2023/05/02 04:18:52;;;;;;;;;;;;;;;;;;4986821;28;20301;-69
2023/05/02 04:21:17;;;;;;;;;;;;;;;;;;4972004;28;19917;-68
2023/05/02 04:23:45;;;;;;;;;;;;;;;;;;4954795;28;19921;-69
2023/05/02 04:26:11;;;;;;;;;;;;;;;;;;4972758;28;19917;-68
2023/05/02 04:28:36;;;;;;;;;;;;;;;;;;4971766;28;19925;-69
2023/05/02 04:31:02;;;;;;;;;;;;;;;;;;4971741;28;20315;-69
2023/05/02 04:33:29;;;;;;;;;;;;;;;;;;4988888;28;19983;-70
2023/05/02 04:35:55;;;;;;;;;;;;;;;;;;4967755;28;19965;-71
2023/05/02 04:38:20;;;;;;;;;;;;;;;;;;4970379;28;19970;-70
2023/05/02 04:40:45;;;;;;;;;;;;;;;;;;4986456;28;19959;-69
2023/05/02 04:43:11;;;;;;;;;;;;;;;;;;4986641;28;19917;-69
2023/05/02 04:45:36;;;;;;;;;;;;;;;;;;4989182;28;19945;-71
2023/05/02 04:48:02;;;;;;;;;;;;;;;;;;4971294;28;20002;-71
2023/05/02 04:50:31;;;;;;;;;;;;;;;;;;4951909;28;19924;-70
2023/05/02 04:52:56;;;;;;;;;;;;;;;;;;4971773;28;19925;-69
2023/05/02 04:55:22;;;;;;;;;;;;;;;;;;4972111;28;19924;-68
2023/05/02 04:57:47;;;;;;;;;;;;;;;;;;4990615;28;20353;-69
2023/05/02 05:03:30;;;;;;;;;;;;;;;;;;4967945;28;20432;-69
2023/05/02 05:05:55;;;;;;;;;;;;;;;;;;4950072;28;19926;-69
2023/05/02 05:08:20;;;;;;;;;;;;;;;;;;4962496;28;19921;-68
2023/05/02 05:10:46;;;;;;;;;;;;;;;;;;4946781;28;19917;-69
2023/05/02 05:13:12;;;;;;;;;;;;;;;;;;4947624;28;19930;-69
2023/05/02 05:15:38;;;;;;;;;;;;;;;;;;4932110;28;19924;-68
2023/05/02 05:18:03;;;;;;;;;;;;;;;;;;4966164;28;19918;-69
2023/05/02 05:23:45;;;;;;;;;;;;;;;;;;4965433;28;19964;-70
2023/05/02 05:26:11;;;;;;;;;;;;;;;;;;4964644;28;19921;-68
2023/05/02 05:28:36;;;;;;;;;;;;;;;;;;4946304;28;19980;-70
2023/05/02 05:34:18;;;;;;;;;;;;;;;;;;4956091;28;20121;-69
2023/05/02 05:36:44;;;;;;;;;;;;;;;;;;4963922;28;19918;-69
2023/05/02 05:39:09;;;;;;;;;;;;;;;;;;4968202;28;19922;-68
2023/05/02 05:41:37;;;;;;;;;;;;;;;;;;4932565;28;20021;-68
2023/05/02 05:44:02;;;;;;;;;;;;;;;;;;4929743;28;19969;-68
2023/05/02 05:46:27;;;;;;;;;;;;;;;;;;4969615;28;20590;-69
2023/05/02 05:48:53;;;;;;;;;;;;;;;;;;4951566;28;19921;-69
2023/05/02 05:51:18;;;;;;;;;;;;;;;;;;4970104;28;20334;-68
2023/05/02 05:53:44;;;;;;;;;;;;;;;;;;4932811;28;20372;-65
2023/05/02 05:56:09;;;;;;;;;;;;;;;;;;4950075;28;20302;-69
2023/05/02 05:58:34;;;;;;;;;;;;;;;;;;4949368;28;19925;-70
2023/05/02 06:01:00;;;;;;;;;;;;;;;;;;4962601;28;19925;-68
2023/05/02 06:03:26;;;;;;;;;;;;;;;;;;4965927;28;19979;-69
2023/05/02 06:05:55;;;;;;;;;;;;;;;;;;4956427;28;20052;-68
2023/05/02 06:08:22;;;;;;;;;;;;;;;;;;4971593;28;19936;-69
2023/05/02 06:10:48;;;;;;;;;;;;;;;;;;4988624;28;20173;-68
2023/05/02 06:13:14;;;;;;;;;;;;;;;;;;4989070;28;19933;-66
2023/05/02 06:15:40;;;;;;;;;;;;;;;;;;4970410;28;19918;-70
2023/05/02 06:18:06;;;;;;;;;;;;;;;;;;4953352;28;19944;-65
2023/05/02 06:20:36;;;;;;;;;;;;;;;;;;4970330;28;19976;-66
2023/05/02 06:23:02;;;;;;;;;;;;;;;;;;4964895;28;20297;-67
2023/05/02 06:25:27;;;;;;;;;;;;;;;;;;4969712;28;19917;-69
2023/05/02 06:27:53;;;;;;;;;;;;;;;;;;4989369;28;20032;-68
2023/05/02 06:30:18;;;;;;;;;;;;;;;;;;4969871;28;19925;-69
2023/05/02 06:32:44;;;;;;;;;;;;;;;;;;4985507;28;19926;-69
2023/05/02 06:35:09;;;;;;;;;;;;;;;;;;4987618;28;20305;-69
2023/05/02 06:37:35;;;;;;;;;;;;;;;;;;4989652;28;19922;-70
2023/05/02 06:40:00;;;;;;;;;;;;;;;;;;4970102;28;20369;-70
2023/05/02 06:42:25;;;;;;;;;;;;;;;;;;4966721;28;20008;-71
2023/05/02 06:47:37;;;;;;;;;;;;;;;;;;4986223;28;19921;-70
2023/05/02 06:50:02;;;;;;;;;;;;;;;;;;4987448;28;20625;-70
2023/05/02 06:52:28;;;;;;;;;;;;;;;;;;4989066;28;19925;-69
2023/05/02 06:54:53;;;;;;;;;;;;;;;;;;4989214;28;19919;-72
2023/05/02 07:00:34;;;;;;;;;;;;;;;;;;4986175;28;19928;-70
2023/05/02 07:03:00;;;;;;;;;;;;;;;;;;4986233;28;19929;-70
2023/05/02 07:05:25;;;;;;;;;;;;;;;;;;4991477;28;19921;-70
2023/05/02 07:07:51;;;;;;;;;;;;;;;;;;4955681;28;19924;-70
2023/05/02 07:10:16;;;;;;;;;;;;;;;;;;4993079;28;19964;-70
2023/05/02 07:12:41;;;;;;;;;;;;;;;;;;4988555;28;20372;-71
2023/05/02 07:15:07;;;;;;;;;;;;;;;;;;4974164;28;20531;-71
2023/05/02 07:17:32;;;;;;;;;;;;;;;;;;4972774;28;19921;-69
2023/05/02 07:19:57;;;;;;;;;;;;;;;;;;4991789;28;20336;-70
2023/05/02 07:22:23;;;;;;;;;;;;;;;;;;4967333;28;19944;-70
2023/05/02 07:24:48;;;;;;;;;;;;;;;;;;4972337;28;19925;-69
2023/05/02 07:27:14;;;;;;;;;;;;;;;;;;4974022;28;19996;-69
2023/05/02 07:29:41;;;;;;;;;;;;;;;;;;4974063;28;19917;-70
2023/05/02 07:32:06;;;;;;;;;;;;;;;;;;4969086;28;19925;-69
2023/05/02 07:34:35;;;;;;;;;;;;;;;;;;4990538;28;20593;-70
2023/05/02 07:37:00;;;;;;;;;;;;;;;;;;4953128;28;19921;-69
2023/05/02 07:39:29;;;;;;;;;;;;;;;;;;4991198;28;19921;-70
2023/05/02 07:41:55;;;;;;;;;;;;;;;;;;4972818;28;19917;-67
2023/05/02 07:47:37;;;;;;;;;;;;;;;;;;4988534;28;20415;-68
2023/05/02 07:50:05;;;;;;;;;;;;;;;;;;4989527;28;20255;-70
2023/05/02 07:52:31;;;;;;;;;;;;;;;;;;4970334;28;19975;-68
2023/05/02 07:54:56;;;;;;;;;;;;;;;;;;4971111;28;19939;-70
2023/05/02 07:57:22;;;;;;;;;;;;;;;;;;4989784;28;20379;-70
2023/05/02 07:59:48;;;;;;;;;;;;;;;;;;4990065;28;19922;-70
2023/05/02 08:02:16;;;;;;;;;;;;;;;;;;4971955;28;19975;-70
2023/05/02 08:04:44;;;;;;;;;;;;;;;;;;4971494;28;19927;-71
2023/05/02 08:07:09;;;;;;;;;;;;;;;;;;4973686;28;20101;-70
2023/05/02 08:09:34;;;;;;;;;;;;;;;;;;4987035;28;20203;-71
2023/05/02 08:12:02;;;;;;;;;;;;;;;;;;4957452;28;20536;-69
2023/05/02 08:14:27;;;;;;;;;;;;;;;;;;4973347;28;19948;-70
2023/05/02 08:16:53;;;;;;;;;;;;;;;;;;4956946;28;19928;-71
2023/05/02 08:19:19;;;;;;;;;;;;;;;;;;4970730;28;19922;-71
2023/05/02 08:25:00;;;;;;;;;;;;;;;;;;4990843;28;19928;-72
2023/05/02 08:27:26;;;;;;;;;;;;;;;;;;4971579;28;19917;-72
2023/05/02 08:29:51;;;;;;;;;;;;;;;;;;4989565;28;19922;-69
2023/05/02 08:32:16;;;;;;;;;;;;;;;;;;4987856;28;20365;-70
2023/05/02 08:34:42;;;;;;;;;;;;;;;;;;4969356;28;19956;-70
2023/05/02 08:37:08;;;;;;;;;;;;;;;;;;4970683;28;20309;-69
2023/05/02 08:39:33;;;;;;;;;;;;;;;;;;4972936;28;19917;-69
2023/05/02 08:41:59;;;;;;;;;;;;;;;;;;4972763;28;19921;-68
2023/05/02 08:44:24;;;;;;;;;;;;;;;;;;4951676;28;19928;-68
2023/05/02 08:46:55;;;;;;;;;;;;;;;;;;4971782;28;20731;-69
2023/05/02 08:49:21;;;;;;;;;;;;;;;;;;4987586;28;20324;-67
2023/05/02 08:51:47;;;;;;;;;;;;;;;;;;4970752;28;19922;-65
2023/05/02 08:54:12;;;;;;;;;;;;;;;;;;4990763;28;20004;-70
2023/05/02 08:56:38;;;;;;;;;;;;;;;;;;4955124;28;19922;-69
2023/05/02 08:59:03;;;;;;;;;;;;;;;;;;4971355;28;19939;-67
2023/05/02 09:01:28;;;;;;;;;;;;;;;;;;4970080;28;19925;-69
2023/05/02 09:03:56;;;;;;;;;;;;;;;;;;4983508;28;19929;-69
2023/05/02 09:06:21;;;;;;;;;;;;;;;;;;4970938;28;20270;-69
2023/05/02 09:08:51;;;;;;;;;;;;;;;;;;4971798;28;19928;-67
2023/05/02 09:11:22;;;;;;;;;;;;;;;;;;4989536;28;20015;-67
2023/05/02 09:13:48;;;;;;;;;;;;;;;;;;4991147;28;19926;-69
2023/05/02 09:16:13;;;;;;;;;;;;;;;;;;4959413;28;19971;-69
2023/05/02 09:18:39;;;;;;;;;;;;;;;;;;4991956;28;20276;-68
2023/05/02 09:21:05;;;;;;;;;;;;;;;;;;4955188;28;19918;-69
2023/05/02 09:23:31;;;;;;;;;;;;;;;;;;4970428;28;19921;-67
2023/05/02 09:25:56;;;;;;;;;;;;;;;;;;4957738;28;20451;-68
2023/05/02 09:28:31;;;;;;;;;;;;;;;;;;4984632;28;19924;-68
2023/05/02 09:30:56;;;;;;;;;;;;;;;;;;4954137;28;19933;-69
2023/05/02 09:33:22;;;;;;;;;;;;;;;;;;4972666;28;20404;-69
2023/05/02 09:35:47;;;;;;;;;;;;;;;;;;4992816;28;20094;-68
2023/05/02 09:38:13;;;;;;;;;;;;;;;;;;4992828;28;19927;-69
2023/05/02 09:43:26;;;;;;;;;;;;;;;;;;4975121;28;19921;-68
2023/05/02 09:45:51;;;;;;;;;;;;;;;;;;4956925;28;19922;-68
2023/05/02 09:48:17;;;;;;;;;;;;;;;;;;4991631;28;19929;-68
2023/05/02 09:50:42;;;;;;;;;;;;;;;;;;4971803;28;19921;-69
2023/05/02 09:53:08;;;;;;;;;;;;;;;;;;4958588;28;19926;-70
2023/05/02 09:55:34;;;;;;;;;;;;;;;;;;4972545;28;19922;-68
2023/05/02 09:58:00;;;;;;;;;;;;;;;;;;4994859;28;19932;-69
2023/05/02 10:00:25;;;;;;;;;;;;;;;;;;4975730;28;19925;-69
2023/05/02 10:02:51;;;;;;;;;;;;;;;;;;4950015;28;20305;-69
2023/05/02 10:05:16;;;;;;;;;;;;;;;;;;4992700;28;19932;-68
2023/05/02 10:07:45;;;;;;;;;;;;;;;;;;4972723;28;19917;-70
2023/05/02 10:13:33;;;;;;;;;;;;;;;;;;4990435;28;20580;-69
2023/05/02 10:16:03;;;;;;;;;;;;;;;;;;4993054;28;19917;-67
2023/05/02 10:18:31;;;;;;;;;;;;;;;;;;4993266;28;20058;-67
2023/05/02 10:20:57;;;;;;;;;;;;;;;;;;4974795;28;20067;-68
2023/05/02 10:23:22;;;;;;;;;;;;;;;;;;4993414;28;19922;-68
2023/05/02 10:25:48;;;;;;;;;;;;;;;;;;4991998;28;20646;-68
2023/05/02 10:28:32;;;;;;;;;;;;;;;;;;4992194;28;20008;-67
2023/05/02 10:30:57;;;;;;;;;;;;;;;;;;4992435;28;19921;-68
2023/05/02 10:33:22;;;;;;;;;;;;;;;;;;4974290;28;19969;-68
2023/05/02 10:35:48;;;;;;;;;;;;;;;;;;4951687;28;20147;-69
2023/05/02 10:38:14;;;;;;;;;;;;;;;;;;4973166;28;19945;-68
2023/05/02 10:40:39;;;;;;;;;;;;;;;;;;4993056;28;19975;-67
2023/05/02 10:43:04;;;;;;;;;;;;;;;;;;4958590;28;19963;-69
2023/05/02 10:45:30;;;;;;;;;;;;;;;;;;4973289;28;19925;-69
2023/05/02 10:47:55;;;;;;;;;;;;;;;;;;4991166;28;20317;-69
2023/05/02 10:50:21;;;;;;;;;;;;;;;;;;4958060;28;19937;-70
2023/05/02 10:52:46;;;;;;;;;;;;;;;;;;4957673;28;19929;-70
2023/05/02 10:55:11;;;;;;;;;;;;;;;;;;4992293;28;19928;-69
2023/05/02 10:57:40;;;;;;;;;;;;;;;;;;4991717;28;21554;-69
2023/05/02 11:00:05;;;;;;;;;;;;;;;;;;4958529;28;19928;-68
2023/05/02 11:02:31;;;;;;;;;;;;;;;;;;4973139;28;19956;-67
2023/05/02 11:04:56;;;;;;;;;;;;;;;;;;4971013;28;19937;-69
2023/05/02 11:07:23;;;;;;;;;;;;;;;;;;4974555;28;19922;-68
2023/05/02 11:09:48;;;;;;;;;;;;;;;;;;4972694;28;20471;-67
2023/05/02 11:12:14;;;;;;;;;;;;;;;;;;4991897;28;19925;-69
2023/05/02 11:14:39;;;;;;;;;;;;;;;;;;4988722;28;19976;-70
2023/05/02 11:17:05;;;;;;;;;;;;;;;;;;4959621;28;19975;-70
2023/05/02 11:19:30;;;;;;;;;;;;;;;;;;4972474;28;19917;-70
2023/05/02 11:21:59;;;;;;;;;;;;;;;;;;4974805;28;19922;-68
2023/05/02 11:24:24;;;;;;;;;;;;;;;;;;4992295;28;19922;-68
2023/05/02 11:26:50;;;;;;;;;;;;;;;;;;4991171;28;20428;-69
2023/05/02 11:29:15;;;;;;;;;;;;;;;;;;4957182;28;19925;-69
2023/05/02 11:31:42;;;;;;;;;;;;;;;;;;4988013;28;20355;-69
2023/05/02 11:34:08;;;;;;;;;;;;;;;;;;4980375;28;19917;-70
2023/05/02 11:36:33;;;;;;;;;;;;;;;;;;4954851;28;19952;-67
2023/05/02 11:38:58;;;;;;;;;;;;;;;;;;4991233;28;20027;-70
2023/05/02 11:41:24;;;;;;;;;;;;;;;;;;4990687;28;20350;-69
2023/05/02 11:43:50;;;;;;;;;;;;;;;;;;4956476;28;20463;-69
2023/05/02 11:46:16;;;;;;;;;;;;;;;;;;4988808;28;20349;-69
2023/05/02 11:48:41;;;;;;;;;;;;;;;;;;4969531;28;19917;-69
2023/05/02 11:51:06;;;;;;;;;;;;;;;;;;4991251;28;20281;-69
2023/05/02 11:53:32;;;;;;;;;;;;;;;;;;4972988;28;19928;-69
2023/05/02 11:55:58;;;;;;;;;;;;;;;;;;4973454;28;20033;-68
2023/05/02 11:58:23;;;;;;;;;;;;;;;;;;4972811;28;20419;-68
2023/05/02 12:00:49;;;;;;;;;;;;;;;;;;4956688;28;20351;-68
2023/05/02 12:03:15;;;;;;;;;;;;;;;;;;4969179;28;19922;-69
2023/05/02 12:05:40;;;;;;;;;;;;;;;;;;4991503;28;19926;-69
2023/05/02 12:08:06;;;;;;;;;;;;;;;;;;4972766;28;22169;-69
2023/05/02 12:10:31;;;;;;;;;;;;;;;;;;4968888;28;19981;-68
2023/05/02 12:12:57;;;;;;;;;;;;;;;;;;4972086;28;19940;-68
2023/05/02 12:15:22;;;;;;;;;;;;;;;;;;4991377;28;19917;-67
2023/05/02 12:17:50;;;;;;;;;;;;;;;;;;4955057;28;20167;-69
2023/05/02 12:20:16;;;;;;;;;;;;;;;;;;4990673;28;19921;-68
2023/05/02 12:22:41;;;;;;;;;;;;;;;;;;4973295;28;19928;-68
2023/05/02 12:25:07;;;;;;;;;;;;;;;;;;4973298;28;19921;-66
2023/05/02 12:27:33;;;;;;;;;;;;;;;;;;4971543;28;19924;-66
2023/05/02 12:30:01;;;;;;;;;;;;;;;;;;4956120;28;19928;-67
2023/05/02 12:32:26;;;;;;;;;;;;;;;;;;4950410;28;20418;-68
2023/05/02 12:34:52;;;;;;;;;;;;;;;;;;4971193;28;20020;-67
2023/05/02 12:37:20;;;;;;;;;;;;;;;;;;4987620;28;19925;-66
2023/05/02 12:39:45;;;;;;;;;;;;;;;;;;4955712;28;19917;-66
2023/05/02 12:45:32;;;;;;;;;;;;;;;;;;4988154;28;19928;-66
2023/05/02 12:47:58;;;;;;;;;;;;;;;;;;4971144;28;20377;-65
2023/05/02 12:50:23;;;;;;;;;;;;;;;;;;4954853;28;19922;-68
2023/05/02 12:52:56;;;;;;;;;;;;;;;;;;4956817;28;19995;-66
2023/05/02 12:55:27;;;;;;;;;;;;;;;;;;4988132;28;19921;-67
2023/05/02 12:57:55;;;;;;;;;;;;;;;;;;4987462;28;19997;-66
2023/05/02 13:00:22;;;;;;;;;;;;;;;;;;4991238;28;20289;-66
2023/05/02 13:02:48;;;;;;;;;;;;;;;;;;4977082;28;19926;-69
2023/05/02 13:05:13;;;;;;;;;;;;;;;;;;4989002;28;19936;-68
2023/05/02 13:07:41;;;;;;;;;;;;;;;;;;4970847;28;19931;-68
2023/05/02 13:13:26;;;;;;;;;;;;;;;;;;4986072;28;20464;-68
2023/05/02 13:15:51;;;;;;;;;;;;;;;;;;4956848;28;19933;-68
2023/05/02 13:18:20;;;;;;;;;;;;;;;;;;4971324;28;20024;-68
2023/05/02 13:20:46;;;;;;;;;;;;;;;;;;4988839;28;20578;-69
2023/05/02 13:23:11;;;;;;;;;;;;;;;;;;4988120;28;20019;-68
2023/05/02 13:25:37;;;;;;;;;;;;;;;;;;4968694;28;20479;-69
2023/05/02 13:28:05;;;;;;;;;;;;;;;;;;4971452;28;19917;-68
2023/05/02 13:30:30;;;;;;;;;;;;;;;;;;4979828;28;19921;-68
2023/05/02 13:32:57;;;;;;;;;;;;;;;;;;4991445;28;20463;-67
2023/05/02 13:35:23;;;;;;;;;;;;;;;;;;4970784;28;19921;-67
2023/05/02 13:37:48;;;;;;;;;;;;;;;;;;4952148;28;19975;-68
2023/05/02 13:40:13;;;;;;;;;;;;;;;;;;4971879;28;20476;-67
2023/05/02 13:42:39;;;;;;;;;;;;;;;;;;4986983;28;20371;-68
2023/05/02 13:45:05;;;;;;;;;;;;;;;;;;4972734;28;20355;-67
2023/05/02 13:47:31;;;;;;;;;;;;;;;;;;4990676;28;20290;-68
2023/05/02 13:49:56;;;;;;;;;;;;;;;;;;4986048;28;20391;-67
2023/05/02 13:52:21;;;;;;;;;;;;;;;;;;4988956;28;19925;-67
2023/05/02 13:54:49;;;;;;;;;;;;;;;;;;4989078;28;20258;-67
2023/05/02 14:00:00;;;;;;;;;;;;;;;;;;4990758;28;19918;-68
2023/05/02 14:02:26;;;;;;;;;;;;;;;;;;4990753;28;20546;-68
2023/05/02 14:04:51;;;;;;;;;;;;;;;;;;4988544;28;19929;-67
2023/05/02 14:07:17;;;;;;;;;;;;;;;;;;4973334;28;19928;-65
2023/05/02 14:09:43;;;;;;;;;;;;;;;;;;4955651;28;19967;-68
2023/05/02 14:12:09;;;;;;;;;;;;;;;;;;4990271;28;19930;-67
2023/05/02 14:14:36;;;;;;;;;;;;;;;;;;4971262;28;19940;-68
2023/05/02 14:17:01;;;;;;;;;;;;;;;;;;4975746;28;19963;-69
2023/05/02 14:19:30;;;;;;;;;;;;;;;;;;4973868;28;20008;-68
2023/05/02 14:21:55;;;;;;;;;;;;;;;;;;4959539;28;19917;-67
2023/05/02 14:24:23;;;;;;;;;;;;;;;;;;4974821;28;20490;-67
2023/05/02 14:26:48;;;;;;;;;;;;;;;;;;4988454;28;19932;-68
2023/05/02 14:29:16;;;;;;;;;;;;;;;;;;4971800;28;20340;-69
2023/05/02 14:31:42;;;;;;;;;;;;;;;;;;4991405;28;19972;-67
2023/05/02 14:34:07;;;;;;;;;;;;;;;;;;4971165;28;20356;-67
2023/05/02 14:36:33;;;;;;;;;;;;;;;;;;4957042;28;19922;-67
2023/05/02 14:38:58;;;;;;;;;;;;;;;;;;4958159;28;19940;-66
2023/05/02 14:41:25;;;;;;;;;;;;;;;;;;4992511;28;20166;-66
2023/05/02 14:43:50;;;;;;;;;;;;;;;;;;4956698;28;19964;-66
2023/05/02 14:46:16;;;;;;;;;;;;;;;;;;4954643;28;19928;-66
2023/05/02 14:48:44;;;;;;;;;;;;;;;;;;4989937;28;20040;-68
2023/05/02 14:51:12;;;;;;;;;;;;;;;;;;4969068;28;20239;-68
2023/05/02 14:53:38;;;;;;;;;;;;;;;;;;4973624;28;19928;-66
2023/05/02 14:56:03;;;;;;;;;;;;;;;;;;4975567;28;19917;-67
2023/05/02 14:58:29;;;;;;;;;;;;;;;;;;4958725;28;19963;-66
2023/05/02 15:00:56;;;;;;;;;;;;;;;;;;4974343;28;19921;-67
2023/05/02 15:03:22;;;;;;;;;;;;;;;;;;4970158;28;19925;-68
2023/05/02 15:05:50;;;;;;;;;;;;;;;;;;4972863;28;19933;-68
2023/05/02 15:08:15;;;;;;;;;;;;;;;;;;4974924;28;19917;-67
2023/05/02 15:10:41;;;;;;;;;;;;;;;;;;4972348;28;20296;-66
2023/05/02 15:13:07;;;;;;;;;;;;;;;;;;4959738;28;20004;-65
2023/05/02 15:18:49;;;;;;;;;;;;;;;;;;4990793;28;19948;-66
2023/05/02 15:21:14;;;;;;;;;;;;;;;;;;4972081;28;19922;-65
2023/05/02 15:23:42;;;;;;;;;;;;;;;;;;4974884;28;20523;-66
2023/05/02 15:26:08;;;;;;;;;;;;;;;;;;4988979;28;19922;-67
2023/05/02 15:31:22;;;;;;;;;;;;;;;;;;4969077;28;19948;-66
2023/05/02 15:33:50;;;;;;;;;;;;;;;;;;4956668;28;21462;-66
2023/05/02 15:36:15;;;;;;;;;;;;;;;;;;4972617;28;19925;-66
2023/05/02 15:38:41;;;;;;;;;;;;;;;;;;4973925;28;19921;-66
2023/05/02 15:41:07;;;;;;;;;;;;;;;;;;4972814;28;19922;-66
2023/05/02 15:43:36;;;;;;;;;;;;;;;;;;4969713;28;20575;-66
2023/05/02 15:46:03;;;;;;;;;;;;;;;;;;4973866;28;20395;-68
2023/05/02 15:48:29;;;;;;;;;;;;;;;;;;4972637;28;19930;-66
2023/05/02 15:50:55;;;;;;;;;;;;;;;;;;4971856;28;20381;-65
2023/05/02 15:53:21;;;;;;;;;;;;;;;;;;4972291;28;20345;-66
2023/05/02 15:55:47;;;;;;;;;;;;;;;;;;4972244;28;19921;-66
2023/05/02 15:58:13;;;;;;;;;;;;;;;;;;4973996;28;20287;-69
2023/05/02 16:00:38;;;;;;;;;;;;;;;;;;4968125;28;20022;-67
2023/05/02 16:03:04;;;;;;;;;;;;;;;;;;4971484;28;19983;-67
2023/05/02 16:05:30;;;;;;;;;;;;;;;;;;4971390;28;20440;-64
2023/05/02 16:07:55;;;;;;;;;;;;;;;;;;4989856;28;19990;-65
2023/05/02 16:10:23;;;;;;;;;;;;;;;;;;4990135;28;20466;-65
2023/05/02 16:12:51;;;;;;;;;;;;;;;;;;4970787;28;20032;-66
2023/05/02 16:15:17;;;;;;;;;;;;;;;;;;4993697;28;19929;-64
2023/05/02 16:17:42;;;;;;;;;;;;;;;;;;4969843;28;20360;-66
2023/05/02 16:20:10;;;;;;;;;;;;;;;;;;4970305;28;19957;-65
2023/05/02 16:22:36;;;;;;;;;;;;;;;;;;4988591;28;19918;-66
2023/05/02 16:25:03;;;;;;;;;;;;;;;;;;4970420;28;19964;-66
2023/05/02 16:27:32;;;;;;;;;;;;;;;;;;4975536;28;19929;-67
2023/05/02 16:29:57;;;;;;;;;;;;;;;;;;4986789;28;19953;-66
2023/05/02 16:32:23;;;;;;;;;;;;;;;;;;4969659;28;19926;-66
2023/05/02 16:34:48;;;;;;;;;;;;;;;;;;4989027;28;19924;-67
2023/05/02 16:37:16;;;;;;;;;;;;;;;;;;4971426;28;19927;-66
2023/05/02 16:39:42;;;;;;;;;;;;;;;;;;4954210;28;20307;-67
2023/05/02 16:42:10;;;;;;;;;;;;;;;;;;4970778;28;20663;-66
2023/05/02 16:47:54;;;;;;;;;;;;;;;;;;4988480;28;19928;-66
2023/05/02 16:50:20;;;;;;;;;;;;;;;;;;4956108;28;19922;-65
2023/05/02 16:52:45;;;;;;;;;;;;;;;;;;4969041;28;19929;-65
2023/05/02 16:55:30;;;;;;;;;;;;;;;;;;4985352;28;20881;-66
2023/05/02 16:57:55;;;;;;;;;;;;;;;;;;4974768;28;20443;-68
2023/05/02 17:00:23;;;;;;;;;;;;;;;;;;4990849;28;19922;-66
2023/05/02 17:02:50;;;;;;;;;;;;;;;;;;4948251;28;19928;-66
2023/05/02 17:05:16;;;;;;;;;;;;;;;;;;4970590;28;19980;-67
2023/05/02 17:07:43;;;;;;;;;;;;;;;;;;4955979;28;19921;-65
2023/05/02 17:10:10;;;;;;;;;;;;;;;;;;4991452;28;20071;-65
2023/05/02 17:12:36;;;;;;;;;;;;;;;;;;4985956;28;20071;-66
2023/05/02 17:15:01;;;;;;;;;;;;;;;;;;4990398;28;19922;-66
2023/05/02 17:17:26;;;;;;;;;;;;;;;;;;4971533;28;20025;-64
2023/05/02 17:23:09;;;;;;;;;;;;;;;;;;4989654;28;19987;-66
2023/05/02 17:25:38;;;;;;;;;;;;;;;;;;4990254;28;19925;-66
2023/05/02 17:28:04;;;;;;;;;;;;;;;;;;4971792;28;19977;-67
2023/05/02 17:30:30;;;;;;;;;;;;;;;;;;4972212;28;19960;-65